Time;durP1;ratioP1;P1;durP2;ratioP2;P2;SDS_P1;SDS_P2;PMS_P1;PMS_P2;Temp;Humidity;BMP_temperature;BMP_pressure;BME280_temperature;BME280_humidity;BME280_pressure;Samples;Min_cycle;Max_cycle;Signal;HPM_P1;HPM_P2
2022/10/09 00:01:11;;;;;;;0.88;0.80;;;9.00;99.90;;;;;;5037250;28;20045;-66
2022/10/09 00:03:39;;;;;;;0.90;0.63;;;9.00;99.90;;;;;;5054933;28;20048;-67
2022/10/09 00:06:06;;;;;;;3.42;1.00;;;9.60;99.90;;;;;;5055215;28;20040;-66
2022/10/09 00:08:33;;;;;;;1.85;0.95;;;9.00;99.90;;;;;;5037284;28;20041;-66
2022/10/09 00:11:03;;;;;;;1.88;0.90;;;9.00;99.90;;;;;;5055157;28;20052;-66
2022/10/09 00:13:28;;;;;;;1.50;0.77;;;9.00;99.90;;;;;;5054857;28;20084;-66
2022/10/09 00:15:54;;;;;;;2.22;1.10;;;9.00;99.90;;;;;;5055029;28;20072;-66
2022/10/09 00:18:20;;;;;;;3.08;1.25;;;9.00;99.90;;;;;;5055038;28;20049;-66
2022/10/09 00:20:46;;;;;;;5.25;1.13;;;9.00;99.90;;;;;;5054992;28;20036;-66
2022/10/09 00:23:14;;;;;;;2.90;1.60;;;9.20;99.90;;;;;;5054855;28;20048;-66
2022/10/09 00:25:48;;;;;;;3.85;1.02;;;9.20;99.90;;;;;;5037024;28;20049;-66
2022/10/09 00:28:14;;;;;;;2.00;1.10;;;9.00;99.90;;;;;;5054648;28;20071;-66
2022/10/09 00:30:39;;;;;;;5.78;1.02;;;9.00;99.90;;;;;;5036040;28;20044;-66
2022/10/09 00:33:05;;;;;;;1.30;0.80;;;8.90;99.90;;;;;;5054806;28;20514;-66
2022/10/09 00:35:31;;;;;;;4.72;1.48;;;9.00;99.90;;;;;;5054754;28;20040;-66
2022/10/09 00:37:56;;;;;;;2.45;1.00;;;8.90;99.90;;;;;;5036510;28;20051;-66
2022/10/09 00:40:23;;;;;;;4.13;1.40;;;8.90;99.90;;;;;;5054234;28;20098;-66
2022/10/09 00:42:57;;;;;;;3.40;0.85;;;8.80;99.90;;;;;;5036407;28;20044;-66
2022/10/09 00:45:23;;;;;;;3.35;1.30;;;8.80;99.90;;;;;;5036365;28;20071;-66
2022/10/09 00:47:59;;;;;;;2.63;1.45;;;8.80;99.90;;;;;;5054525;28;20037;-67
2022/10/09 00:50:36;;;;;;;4.75;1.38;;;8.80;99.90;;;;;;5036522;28;20388;-67
2022/10/09 00:53:02;;;;;;;3.35;1.10;;;8.70;99.90;;;;;;5036439;28;20081;-67
2022/10/09 00:55:29;;;;;;;2.72;1.25;;;8.90;99.90;;;;;;5036191;28;20041;-66
2022/10/09 00:57:58;;;;;;;2.28;1.33;;;8.70;99.90;;;;;;5054304;28;20037;-66
2022/10/09 01:00:25;;;;;;;6.18;1.25;;;8.70;99.90;;;;;;5036119;28;20171;-66
2022/10/09 01:02:50;;;;;;;3.35;1.30;;;8.60;99.90;;;;;;5054214;28;20049;-66
2022/10/09 01:05:16;;;;;;;1.80;1.38;;;8.60;99.90;;;;;;5054068;28;20044;-66
2022/10/09 01:07:58;;;;;;;4.15;1.40;;;8.60;99.90;;;;;;5054039;28;20041;-66
2022/10/09 01:10:49;;;;;;;2.78;1.35;;;8.60;99.90;;;;;;5053695;28;20044;-66
2022/10/09 01:13:27;;;;;;;1.58;1.15;;;8.60;99.90;;;;;;5036041;28;20503;-66
2022/10/09 01:15:57;;;;;;;3.22;1.20;;;8.50;99.90;;;;;;5053905;28;20037;-66
2022/10/09 01:18:35;;;;;;;2.78;1.50;;;8.90;99.90;;;;;;5036313;28;20045;-66
2022/10/09 01:21:15;;;;;;;2.25;1.33;;;8.50;99.90;;;;;;5053785;28;20052;-66
2022/10/09 01:23:48;;;;;;;6.70;1.15;;;8.50;99.90;;;;;;5053711;28;20080;-67
2022/10/09 01:26:25;;;;;;;2.35;1.33;;;8.50;99.90;;;;;;5053461;28;20492;-67
2022/10/09 01:28:58;;;;;;;4.65;1.20;;;8.50;99.90;;;;;;5053673;28;20444;-67
2022/10/09 01:31:27;;;;;;;2.45;1.55;;;8.50;99.90;;;;;;5035724;28;20053;-66
2022/10/09 01:33:53;;;;;;;5.50;2.08;;;8.50;99.90;;;;;;5035440;28;20099;-66
2022/10/09 01:36:21;;;;;;;3.28;1.30;;;8.50;99.90;;;;;;5035700;28;20083;-66
2022/10/09 01:38:47;;;;;;;4.93;1.83;;;8.40;99.90;;;;;;5053554;28;20049;-66
2022/10/09 01:41:13;;;;;;;2.58;1.27;;;8.40;99.90;;;;;;5052954;28;20060;-66
2022/10/09 01:43:40;;;;;;;2.05;1.38;;;8.40;99.90;;;;;;5053339;28;20118;-66
2022/10/09 01:46:32;;;;;;;4.10;1.10;;;8.40;99.90;;;;;;5051922;28;20424;-66
2022/10/09 01:49:10;;;;;;;4.60;1.45;;;8.40;99.90;;;;;;5050100;28;20056;-66
2022/10/09 01:51:47;;;;;;;3.05;1.30;;;8.40;99.90;;;;;;5052170;28;20048;-66
2022/10/09 01:54:17;;;;;;;4.30;1.27;;;8.40;99.90;;;;;;5053291;28;20048;-66
2022/10/09 01:56:46;;;;;;;1.88;1.17;;;8.30;99.90;;;;;;5052978;28;20178;-66
2022/10/09 01:59:16;;;;;;;4.38;1.75;;;8.50;99.90;;;;;;5053192;28;20033;-66
2022/10/09 02:01:42;;;;;;;3.05;1.10;;;8.30;99.90;;;;;;5052969;28;20055;-66
2022/10/09 02:04:11;;;;;;;2.10;1.38;;;8.40;99.90;;;;;;5053115;28;20044;-66
2022/10/09 02:06:39;;;;;;;2.00;1.27;;;8.70;99.90;;;;;;5053140;28;20083;-66
2022/10/09 02:09:10;;;;;;;2.42;1.38;;;8.50;99.90;;;;;;5035210;28;20041;-66
2022/10/09 02:11:36;;;;;;;;;;;8.40;99.90;;;;;;5053131;28;20037;-66
2022/10/09 02:14:02;;;;;;;3.05;1.42;;;8.40;99.90;;;;;;5051846;28;20342;-66
2022/10/09 02:16:36;;;;;;;1.52;1.20;;;8.30;99.90;;;;;;5034907;28;20045;-68
2022/10/09 02:19:22;;;;;;;5.20;1.35;;;8.40;99.90;;;;;;5035183;28;20103;-67
2022/10/09 02:22:06;;;;;;;2.83;1.58;;;8.30;99.90;;;;;;5052715;28;20416;-66
2022/10/09 02:24:33;;;;;;;2.20;1.25;;;8.30;99.90;;;;;;5052908;28;20043;-66
2022/10/09 02:27:01;;;;;;;3.30;1.48;;;8.20;99.90;;;;;;5052935;28;20037;-67
2022/10/09 02:29:27;;;;;;;4.90;1.58;;;8.20;99.90;;;;;;5052912;28;20041;-66
2022/10/09 02:31:52;;;;;;;4.75;1.73;;;8.50;99.90;;;;;;5052895;28;20067;-66
2022/10/09 02:34:19;;;;;;;2.80;1.45;;;9.00;99.90;;;;;;5052602;28;20072;-65
2022/10/09 02:36:48;;;;;;;4.40;1.50;;;8.10;99.90;;;;;;5034740;28;20045;-66
2022/10/09 02:39:14;;;;;;;3.80;1.67;;;8.10;99.90;;;;;;5052348;28;20041;-66
2022/10/09 02:41:40;;;;;;;2.35;1.45;;;8.00;99.90;;;;;;5034688;28;20065;-66
2022/10/09 02:44:06;;;;;;;3.30;1.50;;;8.00;99.90;;;;;;5052673;28;20373;-66
2022/10/09 02:46:33;;;;;;;2.58;1.52;;;8.10;99.90;;;;;;5052700;28;20388;-66
2022/10/09 02:48:58;;;;;;;2.60;1.52;;;8.00;99.90;;;;;;5052730;28;20531;-66
2022/10/09 02:51:24;;;;;;;5.07;1.60;;;8.00;99.90;;;;;;5052674;28;20068;-66
2022/10/09 02:53:52;;;;;;;4.38;1.48;;;7.90;99.90;;;;;;5054715;28;20047;-66
2022/10/09 02:56:19;;;;;;;2.95;1.60;;;7.90;99.90;;;;;;5038590;28;20052;-67
2022/10/09 02:58:44;;;;;;;1.85;1.38;;;7.90;99.90;;;;;;5055022;28;20041;-66
2022/10/09 03:01:11;;;;;;;4.05;1.60;;;7.90;99.90;;;;;;5056195;28;20404;-66
2022/10/09 03:03:36;;;;;;;2.85;1.60;;;7.90;99.90;;;;;;5055981;28;20029;-66
2022/10/09 03:06:05;;;;;;;4.72;1.13;;;7.80;99.90;;;;;;5038231;28;20045;-66
2022/10/09 03:08:31;;;;;;;5.95;1.92;;;7.80;99.90;;;;;;5056203;28;20032;-66
2022/10/09 03:10:57;;;;;;;3.83;1.48;;;7.70;99.90;;;;;;5038107;28;20048;-66
2022/10/09 03:13:23;;;;;;;1.95;1.50;;;7.70;99.90;;;;;;5038026;28;20128;-66
2022/10/09 03:15:48;;;;;;;2.75;1.67;;;7.70;99.90;;;;;;5038231;28;20119;-66
2022/10/09 03:18:14;;;;;;;6.45;2.00;;;7.70;99.90;;;;;;5037945;28;20136;-66
2022/10/09 03:20:40;;;;;;;2.95;1.77;;;7.70;99.90;;;;;;5056115;28;20507;-66
2022/10/09 03:23:05;;;;;;;6.50;1.83;;;7.70;99.90;;;;;;5037809;28;20051;-66
2022/10/09 03:25:31;;;;;;;2.75;1.75;;;7.70;99.90;;;;;;5037844;28;20083;-66
2022/10/09 03:27:57;;;;;;;3.28;1.77;;;7.70;99.90;;;;;;5054805;28;20108;-66
2022/10/09 03:30:22;;;;;;;8.18;2.40;;;7.70;99.90;;;;;;5055631;28;20044;-66
2022/10/09 03:32:48;;;;;;;2.70;1.73;;;7.60;99.90;;;;;;5037705;28;20045;-66
2022/10/09 03:35:14;;;;;;;7.93;2.28;;;7.60;99.90;;;;;;5037717;28;20059;-66
2022/10/09 03:37:39;;;;;;;3.95;2.00;;;7.60;99.90;;;;;;5055764;28;20056;-66
2022/10/09 03:40:05;;;;;;;2.90;2.00;;;7.60;99.90;;;;;;5037483;28;20479;-66
2022/10/09 03:42:31;;;;;;;3.65;2.25;;;7.60;99.90;;;;;;5055691;28;20040;-66
2022/10/09 03:44:59;;;;;;;3.97;1.98;;;7.60;99.90;;;;;;5055306;28;20088;-66
2022/10/09 03:47:25;;;;;;;4.70;2.03;;;7.50;99.90;;;;;;5055627;28;20068;-66
2022/10/09 03:49:51;;;;;;;3.55;2.08;;;7.50;99.90;;;;;;5037472;28;20052;-67
2022/10/09 03:52:16;;;;;;;4.07;2.33;;;8.10;99.90;;;;;;5055498;28;20433;-67
2022/10/09 03:54:42;;;;;;;4.40;2.00;;;8.00;99.90;;;;;;5055163;28;20492;-66
2022/10/09 03:57:08;;;;;;;4.22;2.13;;;7.90;99.90;;;;;;5037405;28;20045;-66
2022/10/09 03:59:33;;;;;;;2.40;1.83;;;7.80;99.90;;;;;;5055307;28;20091;-66
2022/10/09 04:01:59;;;;;;;2.35;1.60;;;7.40;99.90;;;;;;5055325;28;20045;-66
2022/10/09 04:04:25;;;;;;;5.18;2.30;;;8.10;99.90;;;;;;5036360;28;20049;-67
2022/10/09 04:06:51;;;;;;;2.72;1.65;;;7.50;99.90;;;;;;5036798;28;20115;-67
2022/10/09 04:09:16;;;;;;;4.10;1.80;;;7.40;99.90;;;;;;5055025;28;20124;-66
2022/10/09 04:11:42;;;;;;;4.10;2.08;;;7.50;99.90;;;;;;5055210;28;20086;-66
2022/10/09 04:14:08;;;;;;;4.55;1.92;;;8.20;99.90;;;;;;5055151;28;20045;-66
2022/10/09 04:16:34;;;;;;;2.45;1.60;;;7.40;99.90;;;;;;5054802;28;20071;-66
2022/10/09 04:19:00;;;;;;;3.50;2.13;;;7.40;99.90;;;;;;5055016;28;20111;-68
2022/10/09 04:21:25;;;;;;;2.67;1.88;;;7.40;99.90;;;;;;5055049;28;20037;-66
2022/10/09 04:23:51;;;;;;;3.20;2.13;;;7.70;99.90;;;;;;5054882;28;20029;-66
2022/10/09 04:26:17;;;;;;;4.35;2.05;;;7.40;99.90;;;;;;5037117;28;20041;-66
2022/10/09 04:28:43;;;;;;;3.25;1.88;;;7.40;99.90;;;;;;5036771;28;20041;-67
2022/10/09 04:31:09;;;;;;;4.85;2.00;;;7.40;99.90;;;;;;5054409;28;20037;-66
2022/10/09 04:33:35;;;;;;;8.88;2.55;;;7.40;99.90;;;;;;5054704;28;20051;-66
2022/10/09 04:36:01;;;;;;;2.90;1.85;;;7.40;99.90;;;;;;5054367;28;20191;-66
2022/10/09 04:38:26;;;;;;;2.15;1.42;;;7.40;99.90;;;;;;5054280;28;20041;-66
2022/10/09 04:41:18;;;;;;;3.60;2.13;;;7.30;99.90;;;;;;5054215;28;20049;-66
2022/10/09 04:43:44;;;;;;;2.63;1.73;;;7.40;99.90;;;;;;5051443;28;20044;-66
2022/10/09 04:46:12;;;;;;;8.05;2.20;;;7.30;99.90;;;;;;5054493;28;20045;-67
2022/10/09 04:48:39;;;;;;;3.70;1.75;;;7.40;99.90;;;;;;5036439;28;20049;-66
2022/10/09 04:51:06;;;;;;;6.53;1.85;;;7.60;99.90;;;;;;5054475;28;20529;-66
2022/10/09 04:53:32;;;;;;;3.72;2.30;;;7.30;99.90;;;;;;5054403;28;20049;-66
2022/10/09 04:56:02;;;;;;;4.18;1.67;;;7.30;99.90;;;;;;5036198;28;20081;-67
2022/10/09 04:58:29;;;;;;;4.20;1.90;;;7.30;99.90;;;;;;5054346;28;20048;-67
2022/10/09 05:00:55;;;;;;;3.10;1.85;;;7.30;99.90;;;;;;5054246;28;20045;-67
2022/10/09 05:03:20;;;;;;;2.92;1.52;;;7.30;99.90;;;;;;5054109;28;20388;-67
2022/10/09 05:05:47;;;;;;;2.53;2.10;;;7.20;99.90;;;;;;5036383;28;20037;-67
2022/10/09 05:08:12;;;;;;;3.33;1.60;;;7.20;99.90;;;;;;5054030;28;20443;-67
2022/10/09 05:10:38;;;;;;;2.25;1.70;;;7.20;99.90;;;;;;5054031;28;20033;-67
2022/10/09 05:13:04;;;;;;;2.40;1.65;;;7.20;99.90;;;;;;5053948;28;20039;-67
2022/10/09 05:15:30;;;;;;;2.75;1.50;;;7.20;99.90;;;;;;5053245;28;20079;-67
2022/10/09 05:17:56;;;;;;;2.38;1.77;;;7.20;99.90;;;;;;5053752;28;20048;-66
2022/10/09 05:20:21;;;;;;;9.68;2.13;;;7.30;99.90;;;;;;5053775;28;20071;-67
2022/10/09 05:22:47;;;;;;;7.22;2.33;;;7.20;99.90;;;;;;5053833;28;20121;-66
2022/10/09 05:25:14;;;;;;;5.03;1.73;;;7.50;99.90;;;;;;5053312;28;20040;-67
2022/10/09 05:27:39;;;;;;;3.55;1.70;;;7.20;99.90;;;;;;5053337;28;20442;-66
2022/10/09 05:30:06;;;;;;;4.93;1.67;;;7.20;99.90;;;;;;5053659;28;20112;-66
2022/10/09 05:32:32;;;;;;;3.97;1.95;;;7.20;99.90;;;;;;5019267;28;20059;-66
2022/10/09 05:34:57;;;;;;;3.90;2.03;;;7.90;99.90;;;;;;5053595;28;20037;-66
2022/10/09 05:37:23;;;;;;;4.07;1.92;;;7.10;99.90;;;;;;5053175;28;20078;-67
2022/10/09 05:39:49;;;;;;;4.20;1.88;;;7.10;99.90;;;;;;5035222;28;20135;-67
2022/10/09 05:42:14;;;;;;;10.35;2.10;;;7.10;99.90;;;;;;5053106;28;20045;-67
2022/10/09 05:44:40;;;;;;;3.33;1.85;;;7.10;99.90;;;;;;5053351;28;20057;-66
2022/10/09 05:47:06;;;;;;;3.95;1.73;;;7.10;99.90;;;;;;5035691;28;20393;-67
2022/10/09 05:49:31;;;;;;;3.78;1.73;;;7.00;99.90;;;;;;5053064;28;20384;-67
2022/10/09 05:51:57;;;;;;;3.63;1.60;;;7.60;99.90;;;;;;5053334;28;20038;-66
2022/10/09 05:54:23;;;;;;;3.65;1.90;;;7.90;99.90;;;;;;5035366;28;20435;-67
2022/10/09 05:56:49;;;;;;;1.88;1.40;;;7.10;99.90;;;;;;5035138;28;20098;-67
2022/10/09 05:59:19;;;;;;;3.22;1.80;;;7.00;99.90;;;;;;5052957;28;20041;-66
2022/10/09 06:01:48;;;;;;;3.03;1.80;;;7.00;99.90;;;;;;5053200;28;20033;-66
2022/10/09 06:04:19;;;;;;;3.38;1.58;;;7.10;99.90;;;;;;5035089;28;20081;-66
2022/10/09 06:06:48;;;;;;;4.18;2.08;;;7.10;99.90;;;;;;5053198;28;20060;-67
2022/10/09 06:09:17;;;;;;;3.00;2.00;;;7.30;99.90;;;;;;5053103;28;20039;-67
2022/10/09 06:11:43;;;;;;;6.45;1.70;;;7.00;99.90;;;;;;5052006;28;20045;-66
2022/10/09 06:14:11;;;;;;;3.42;1.65;;;7.00;99.90;;;;;;5052297;28;20101;-67
2022/10/09 06:16:40;;;;;;;4.82;1.70;;;7.00;99.90;;;;;;5052294;28;20041;-66
2022/10/09 06:19:09;;;;;;;3.22;1.92;;;6.90;99.90;;;;;;5051881;28;20086;-66
2022/10/09 06:21:34;;;;;;;3.28;2.13;;;6.90;99.90;;;;;;5051818;28;20408;-66
2022/10/09 06:24:02;;;;;;;4.47;1.92;;;6.90;99.90;;;;;;5051986;28;20123;-66
2022/10/09 06:26:29;;;;;;;4.75;1.88;;;6.90;99.90;;;;;;5052369;28;20056;-67
2022/10/09 06:28:55;;;;;;;2.40;1.60;;;6.90;99.90;;;;;;5054251;28;20041;-66
2022/10/09 06:31:24;;;;;;;2.83;2.08;;;7.00;99.90;;;;;;5056231;28;20040;-66
2022/10/09 06:33:52;;;;;;;4.53;2.10;;;6.90;99.90;;;;;;5055840;28;20087;-66
2022/10/09 06:36:19;;;;;;;4.82;2.45;;;6.90;99.90;;;;;;5056108;28;20053;-65
2022/10/09 06:38:44;;;;;;;2.78;1.70;;;6.80;99.90;;;;;;5037917;28;20227;-65
2022/10/09 06:41:13;;;;;;;3.30;1.88;;;6.90;99.90;;;;;;5055552;28;20579;-65
2022/10/09 06:43:39;;;;;;;2.30;1.70;;;6.90;99.90;;;;;;5055863;28;20107;-65
2022/10/09 06:46:08;;;;;;;2.75;1.90;;;6.90;99.90;;;;;;5055889;28;20045;-64
2022/10/09 06:48:36;;;;;;;4.28;2.20;;;7.30;99.90;;;;;;5055783;28;20044;-65
2022/10/09 06:51:03;;;;;;;6.28;2.35;;;6.90;99.90;;;;;;5038241;28;20037;-66
2022/10/09 06:53:29;;;;;;;3.00;1.85;;;6.90;99.90;;;;;;5055351;28;20048;-66
2022/10/09 06:55:57;;;;;;;3.45;2.28;;;7.00;99.90;;;;;;5055647;28;20040;-65
2022/10/09 06:58:23;;;;;;;3.33;2.13;;;7.00;99.90;;;;;;5037811;28;20102;-66
2022/10/09 07:00:49;;;;;;;2.88;2.40;;;7.10;99.90;;;;;;5055345;28;20037;-66
2022/10/09 07:03:15;;;;;;;6.10;2.28;;;7.20;99.90;;;;;;5055507;28;20052;-66
2022/10/09 07:05:41;;;;;;;6.32;2.80;;;7.20;99.90;;;;;;5055553;28;20037;-67
2022/10/09 07:08:06;;;;;;;4.75;2.15;;;7.90;99.90;;;;;;5055440;28;20495;-65
2022/10/09 07:10:32;;;;;;;4.90;2.20;;;7.30;99.90;;;;;;5055269;28;20098;-65
2022/10/09 07:12:57;;;;;;;9.88;2.72;;;7.40;99.90;;;;;;5055156;28;20052;-64
2022/10/09 07:15:23;;;;;;;3.45;2.08;;;7.50;99.90;;;;;;5055335;28;20055;-63
2022/10/09 07:17:49;;;;;;;3.50;2.42;;;7.80;99.90;;;;;;5055256;28;20318;-64
2022/10/09 07:20:14;;;;;;;3.30;2.35;;;7.90;99.90;;;;;;5054713;28;20531;-62
2022/10/09 07:22:40;;;;;;;4.22;2.50;;;7.80;99.90;;;;;;5036841;28;20049;-63
2022/10/09 07:25:06;;;;;;;4.25;2.75;;;8.30;99.90;;;;;;5054657;28;20095;-64
2022/10/09 07:27:34;;;;;;;5.85;2.78;;;8.00;99.90;;;;;;5054875;28;20041;-64
2022/10/09 07:30:00;;;;;;;5.43;2.70;;;8.10;99.90;;;;;;5036835;28;20045;-65
2022/10/09 07:32:25;;;;;;;4.28;2.65;;;8.20;99.90;;;;;;5055074;28;20048;-64
2022/10/09 07:34:51;;;;;;;4.85;2.78;;;8.30;99.90;;;;;;5054957;28;20132;-66
2022/10/09 07:37:16;;;;;;;6.25;2.10;;;8.40;99.90;;;;;;5036864;28;20373;-66
2022/10/09 07:39:42;;;;;;;4.22;2.30;;;8.50;99.90;;;;;;5036476;28;20077;-66
2022/10/09 07:42:08;;;;;;;5.00;2.65;;;8.60;99.90;;;;;;5054731;28;20508;-66
2022/10/09 07:44:33;;;;;;;4.93;2.58;;;8.70;99.90;;;;;;5054753;28;20114;-66
2022/10/09 07:46:59;;;;;;;3.95;2.45;;;8.80;99.90;;;;;;5054805;28;20040;-66
2022/10/09 07:49:25;;;;;;;4.00;2.55;;;8.80;99.90;;;;;;5036777;28;20040;-67
2022/10/09 07:51:50;;;;;;;2.63;1.88;;;8.90;99.90;;;;;;5036652;28;20120;-64
2022/10/09 07:54:16;;;;;;;3.28;2.10;;;9.00;99.90;;;;;;5054609;28;20044;-65
2022/10/09 07:56:42;;;;;;;3.10;2.25;;;9.10;99.90;;;;;;5036818;28;20108;-65
2022/10/09 07:59:12;;;;;;;2.95;1.83;;;9.50;99.90;;;;;;5054592;28;20132;-64
2022/10/09 08:01:38;;;;;;;5.07;2.60;;;9.20;99.90;;;;;;5054564;28;20072;-64
2022/10/09 08:04:04;;;;;;;6.03;2.58;;;9.30;99.90;;;;;;5036474;28;20099;-65
2022/10/09 08:06:31;;;;;;;3.95;2.38;;;9.40;99.90;;;;;;5054361;28;20470;-66
2022/10/09 08:08:58;;;;;;;5.03;2.38;;;9.40;99.90;;;;;;5054057;28;20033;-66
2022/10/09 08:11:26;;;;;;;5.45;2.55;;;9.50;99.90;;;;;;5053917;28;20052;-65
2022/10/09 08:13:52;;;;;;;4.00;2.17;;;9.50;99.90;;;;;;5054186;28;20514;-66
2022/10/09 08:16:19;;;;;;;3.55;2.03;;;9.60;99.90;;;;;;5053890;28;20048;-66
2022/10/09 08:18:45;;;;;;;6.07;2.45;;;9.70;99.90;;;;;;5036039;28;20133;-66
2022/10/09 08:21:17;;;;;;;6.10;2.70;;;10.30;99.90;;;;;;5054246;28;20095;-65
2022/10/09 08:23:43;;;;;;;4.35;2.33;;;9.80;99.90;;;;;;5053716;28;20124;-65
2022/10/09 08:26:17;;;;;;;5.00;2.47;;;9.90;99.90;;;;;;5053873;28;20129;-66
2022/10/09 08:28:43;;;;;;;8.38;2.15;;;10.00;99.90;;;;;;5053738;28;20076;-65
2022/10/09 08:31:14;;;;;;;5.25;2.53;;;10.10;99.90;;;;;;5053978;28;20059;-66
2022/10/09 08:33:40;;;;;;;5.43;2.55;;;10.20;99.90;;;;;;5053937;28;20490;-66
2022/10/09 08:36:07;;;;;;;3.03;2.42;;;10.30;99.90;;;;;;5053605;28;20041;-66
2022/10/09 08:38:34;;;;;;;3.58;2.10;;;10.30;99.90;;;;;;5052219;28;20072;-66
2022/10/09 08:41:09;;;;;;;4.43;2.60;;;10.40;99.90;;;;;;5053475;28;20610;-66
2022/10/09 08:43:40;;;;;;;4.03;2.40;;;10.50;99.90;;;;;;5035553;28;20037;-66
2022/10/09 08:46:31;;;;;;;3.88;2.10;;;10.50;99.90;;;;;;5035812;28;20385;-66
2022/10/09 08:48:58;;;;;;;;;;;10.60;99.90;;;;;;5054028;28;20045;-66
2022/10/09 08:51:31;;;;;;;5.07;2.25;;;10.60;99.90;;;;;;5052590;28;19923;-66
2022/10/09 08:54:09;;;;;;;6.43;2.30;;;10.70;99.90;;;;;;5053553;28;20044;-65
2022/10/09 08:56:36;;;;;;;5.32;2.63;;;10.70;99.90;;;;;;5053084;28;20043;-65
2022/10/09 08:59:02;;;;;;;4.65;2.40;;;10.80;99.90;;;;;;5053296;28;20067;-65
2022/10/09 09:01:34;;;;;;;4.05;1.80;;;10.80;99.90;;;;;;5053596;28;20045;-65
2022/10/09 09:04:31;;;;;;;4.60;1.98;;;10.90;99.90;;;;;;5052991;28;20063;-65
2022/10/09 09:07:15;;;;;;;2.47;1.92;;;10.90;99.90;;;;;;5052947;28;20033;-65
2022/10/09 09:10:05;;;;;;;4.55;2.42;;;11.00;99.90;;;;;;5053053;28;20039;-65
2022/10/09 09:12:47;;;;;;;4.15;2.13;;;11.10;99.90;;;;;;5053090;28;20037;-65
2022/10/09 09:15:32;;;;;;;;;;;11.10;99.90;;;;;;5053138;28;20052;-66
2022/10/09 09:18:24;;;;;;;4.30;2.40;;;11.20;99.90;;;;;;5053042;28;19928;-65
2022/10/09 09:20:52;;;;;;;5.05;2.53;;;11.30;99.90;;;;;;5053007;28;20192;-65
2022/10/09 09:23:32;;;;;;;5.05;2.88;;;11.40;99.90;;;;;;5052740;28;20068;-65
2022/10/09 09:25:59;;;;;;;3.33;2.10;;;11.40;99.90;;;;;;5052893;28;20044;-65
2022/10/09 09:28:33;;;;;;;4.20;2.22;;;11.60;99.90;;;;;;5052531;28;20040;-65
2022/10/09 09:31:11;;;;;;;6.05;2.88;;;11.60;99.90;;;;;;5018329;28;20041;-65
2022/10/09 09:33:43;;;;;;;5.32;2.63;;;11.70;99.90;;;;;;5052749;28;20442;-65
2022/10/09 09:36:23;;;;;;;3.65;1.75;;;11.80;99.90;;;;;;5052456;28;20037;-66
2022/10/09 09:38:50;;;;;;;5.07;2.10;;;11.90;99.90;;;;;;5052699;28;20121;-65
2022/10/09 09:41:16;;;;;;;4.32;1.80;;;12.00;99.90;;;;;;5051983;28;20416;-66
2022/10/09 09:43:42;;;;;;;5.13;1.88;;;12.00;99.90;;;;;;5052499;28;20045;-66
2022/10/09 09:46:21;;;;;;;3.75;1.58;;;12.10;99.90;;;;;;5052347;28;20107;-65
2022/10/09 09:48:48;;;;;;;3.85;1.42;;;12.20;99.90;;;;;;5052550;28;20041;-66
2022/10/09 09:51:21;;;;;;;2.75;1.73;;;12.20;99.90;;;;;;5052420;28;20052;-66
2022/10/09 09:53:49;;;;;;;7.50;2.08;;;12.30;99.90;;;;;;5052473;28;20037;-66
2022/10/09 09:56:16;;;;;;;5.25;1.60;;;12.40;99.90;;;;;;5051969;28;20488;-66
2022/10/09 09:58:53;;;;;;;4.75;1.65;;;12.50;99.90;;;;;;5034438;28;20093;-66
2022/10/09 10:01:25;;;;;;;5.18;1.80;;;12.60;99.90;;;;;;5052358;28;20041;-65
2022/10/09 10:03:53;;;;;;;2.50;1.40;;;12.70;99.90;;;;;;5051281;28;20111;-65
2022/10/09 10:06:43;;;;;;;2.78;1.50;;;12.80;99.90;;;;;;5034146;28;20123;-65
2022/10/09 10:09:15;;;;;;;3.63;1.42;;;12.90;99.90;;;;;;5041205;28;20559;-65
2022/10/09 10:11:59;;;;;;;3.00;1.48;;;13.00;99.90;;;;;;5034258;28;20553;-66
2022/10/09 10:14:26;;;;;;;2.58;1.23;;;13.10;99.70;;;;;;5052139;28;20052;-65
2022/10/09 10:16:54;;;;;;;2.22;1.10;;;13.20;99.90;;;;;;5051389;28;20049;-65
2022/10/09 10:19:28;;;;;;;3.15;1.25;;;13.30;99.90;;;;;;5052107;28;20036;-65
2022/10/09 10:22:02;;;;;;;3.28;1.58;;;13.40;99.00;;;;;;5051847;28;20077;-65
2022/10/09 10:24:44;;;;;;;3.58;1.50;;;13.40;98.20;;;;;;5052003;28;20037;-65
2022/10/09 10:27:29;;;;;;;6.00;1.40;;;13.50;99.90;;;;;;5052061;28;20041;-65
2022/10/09 10:30:02;;;;;;;2.30;1.25;;;13.60;99.50;;;;;;5034224;28;20051;-65
2022/10/09 10:32:46;;;;;;;3.15;1.55;;;13.70;98.10;;;;;;5052075;28;20374;-65
2022/10/09 10:35:16;;;;;;;5.80;1.77;;;13.70;98.20;;;;;;5052043;28;20468;-65
2022/10/09 10:38:18;;;;;;;3.17;1.53;;;13.80;98.90;;;;;;5051947;28;20040;-65
2022/10/09 10:40:52;;;;;;;2.63;1.10;;;13.80;97.90;;;;;;5051715;28;20298;-65
2022/10/09 10:43:46;;;;;;;2.00;1.08;;;13.90;97.20;;;;;;5051607;28;20045;-64
2022/10/09 10:46:28;;;;;;;2.63;1.40;;;13.90;95.90;;;;;;5040867;28;20095;-66
2022/10/09 10:48:53;;;;;;;2.03;1.10;;;13.90;95.60;;;;;;5051931;28;20476;-65
2022/10/09 10:51:41;;;;;;;2.75;0.95;;;13.90;95.60;;;;;;5051825;28;20041;-65
2022/10/09 10:54:31;;;;;;;2.80;1.20;;;14.00;94.90;;;;;;5033912;28;20488;-65
2022/10/09 10:57:05;;;;;;;4.32;1.30;;;14.00;95.00;;;;;;5051905;28;20045;-65
2022/10/09 10:59:55;;;;;;;3.58;1.00;;;14.10;95.80;;;;;;5051846;28;20045;-64
2022/10/09 11:03:19;;;;;;;1.38;0.80;;;14.20;92.40;;;;;;5033647;28;20053;-68
2022/10/09 11:05:51;;;;;;;1.88;1.00;;;14.20;92.80;;;;;;4989891;28;20054;-64
2022/10/09 11:08:52;;;;;;;3.92;0.88;;;14.20;89.70;;;;;;4990203;28;20054;-64
2022/10/09 11:11:21;;;;;;;2.35;1.10;;;14.20;90.60;;;;;;5036348;28;20492;-63
2022/10/09 11:13:55;;;;;;;1.23;0.80;;;14.30;90.30;;;;;;5052199;28;20048;-67
2022/10/09 11:16:20;;;;;;;0.95;0.80;;;14.40;90.90;;;;;;5037322;28;20059;-66
2022/10/09 11:19:05;;;;;;;0.70;0.60;;;14.30;90.30;;;;;;5037359;28;20825;-66
2022/10/09 11:21:39;;;;;;;4.97;0.80;;;14.40;92.20;;;;;;5055061;28;20070;-66
2022/10/09 11:24:07;;;;;;;0.85;0.63;;;14.50;87.30;;;;;;5055050;28;20041;-66
2022/10/09 11:26:55;;;;;;;3.42;0.70;;;14.60;87.50;;;;;;5055210;28;20040;-65
2022/10/09 11:29:28;;;;;;;1.67;0.80;;;14.60;79.10;;;;;;5037418;28;20052;-68
2022/10/09 11:32:18;;;;;;;2.28;0.85;;;14.60;78.30;;;;;;5055167;28;20037;-66
2022/10/09 11:34:51;;;;;;;3.22;0.90;;;14.60;84.10;;;;;;5025484;28;20049;-65
2022/10/09 11:37:22;;;;;;;7.60;1.13;;;14.60;86.00;;;;;;5055187;28;20048;-67
2022/10/09 11:39:48;;;;;;;2.30;1.10;;;14.60;90.10;;;;;;5053432;28;20122;-67
2022/10/09 11:42:18;;;;;;;2.20;0.80;;;14.70;85.10;;;;;;5054512;28;20048;-66
2022/10/09 11:44:54;;;;;;;2.10;1.10;;;14.80;83.10;;;;;;5036806;28;20041;-66
2022/10/09 11:47:33;;;;;;;5.15;1.17;;;14.90;81.70;;;;;;5054850;28;20045;-66
2022/10/09 11:50:08;;;;;;;2.47;0.82;;;14.90;83.10;;;;;;5054879;28;20040;-66
2022/10/09 11:52:47;;;;;;;2.53;1.00;;;14.90;82.80;;;;;;5037040;28;20056;-66
2022/10/09 11:55:26;;;;;;;2.28;1.08;;;14.90;57.00;;;;;;5036907;28;20403;-66
2022/10/09 11:57:52;;;;;;;2.60;0.80;;;15.00;22.30;;;;;;5054704;28;20053;-66
2022/10/09 12:00:34;;;;;;;1.30;0.90;;;15.00;21.00;;;;;;5036588;28;20049;-66
2022/10/09 12:03:04;;;;;;;5.35;1.13;;;15.00;1.00;;;;;;5036746;28;20071;-66
2022/10/09 12:05:43;;;;;;;1.20;0.80;;;15.10;1.00;;;;;;5054482;28;20132;-66
2022/10/09 12:08:23;;;;;;;2.35;1.20;;;15.10;1.00;;;;;;5054543;28;20505;-66
2022/10/09 12:11:14;;;;;;;2.80;1.13;;;15.30;1.00;;;;;;5036383;28;20049;-66
2022/10/09 12:14:02;;;;;;;2.38;0.90;;;15.40;1.00;;;;;;5028569;28;20056;-66
2022/10/09 12:16:30;;;;;;;4.20;1.63;;;15.50;1.00;;;;;;5054420;28;20089;-66
2022/10/09 12:18:59;;;;;;;2.22;1.20;;;15.40;1.00;;;;;;5054022;28;20116;-66
2022/10/09 12:21:29;;;;;;;1.98;1.08;;;15.40;1.00;;;;;;5019490;28;20037;-66
2022/10/09 12:23:54;;;;;;;3.30;1.03;;;15.30;8.70;;;;;;5036190;28;20476;-66
2022/10/09 12:26:23;;;;;;;1.75;1.20;;;15.30;1.00;;;;;;5052784;28;20055;-66
2022/10/09 12:28:53;;;;;;;2.03;1.05;;;15.30;1.00;;;;;;5019863;28;20511;-66
2022/10/09 12:31:38;;;;;;;2.08;0.82;;;15.20;1.00;;;;;;5054216;28;20499;-66
2022/10/09 12:34:40;;;;;;;0.77;0.63;;;15.20;1.00;;;;;;5053741;28;20049;-67
2022/10/09 12:37:10;;;;;;;2.97;1.10;;;15.10;1.00;;;;;;5026125;28;20143;-66
2022/10/09 12:39:36;;;;;;;5.00;1.60;;;15.10;1.00;;;;;;5035758;28;20052;-66
2022/10/09 12:42:03;;;;;;;0.60;0.60;;;15.10;1.00;;;;;;5035438;28;20484;-66
2022/10/09 12:44:34;;;;;;;1.70;0.90;;;15.10;1.00;;;;;;5053732;28;20103;-66
2022/10/09 12:47:13;;;;;;;2.20;0.95;;;15.00;1.00;;;;;;5053490;28;20041;-66
2022/10/09 12:49:38;;;;;;;1.85;1.30;;;15.00;1.00;;;;;;5053622;28;20083;-66
2022/10/09 12:52:13;;;;;;;1.77;0.82;;;14.90;1.00;;;;;;5035703;28;20036;-65
2022/10/09 12:54:42;;;;;;;3.60;1.08;;;15.00;1.00;;;;;;5053298;28;20044;-66
2022/10/09 12:57:13;;;;;;;4.53;1.20;;;14.90;1.00;;;;;;5053192;28;20037;-65
2022/10/09 12:59:40;;;;;;;4.60;0.98;;;14.90;1.00;;;;;;5053492;28;20037;-65
2022/10/09 13:02:11;;;;;;;0.40;0.40;;;14.90;1.00;;;;;;5053426;28;20040;-65
2022/10/09 13:04:37;;;;;;;3.13;0.57;;;14.90;1.00;;;;;;5053362;28;20114;-66
2022/10/09 13:07:17;;;;;;;1.40;0.70;;;14.90;1.00;;;;;;5035248;28;20403;-66
2022/10/09 13:09:43;;;;;;;1.42;0.85;;;14.90;1.00;;;;;;5053279;28;20115;-66
2022/10/09 13:12:22;;;;;;;1.02;0.68;;;14.80;1.00;;;;;;5035735;28;20049;-65